Time;durP1;ratioP1;P1;durP2;ratioP2;P2;SDS_P1;SDS_P2;PMS_P1;PMS_P2;Temp;Humidity;BMP_temperature;BMP_pressure;BME280_temperature;BME280_humidity;BME280_pressure;Samples;Min_cycle;Max_cycle;Signal;HPM_P1;HPM_P2
2022/09/05 00:00:52;;;;;;;14.43;7.13;;;;;;;;;;3363053;42;20147;-66
2022/09/05 00:03:55;;;;;;;15.37;6.80;;;;;;;;;;3353012;42;20634;-63
2022/09/05 00:06:21;;;;;;;16.55;6.63;;;;;;;;;;3344826;42;20159;-64
2022/09/05 00:09:05;;;;;;;16.88;7.10;;;;;;;;;;3365542;42;20100;-63
2022/09/05 00:11:50;;;;;;;14.45;6.65;;;;;;;;;;3367286;42;20180;-63
2022/09/05 00:14:34;;;;;;;17.15;7.47;;;;;;;;;;3365065;42;20099;-64
2022/09/05 00:17:29;;;;;;;15.27;6.53;;;;;;;;;;3366230;42;20491;-62
2022/09/05 00:20:03;;;;;;;14.95;7.28;;;;;;;;;;3340918;42;20108;-63
2022/09/05 00:22:55;;;;;;;16.08;6.85;;;;;;;;;;3371676;42;20502;-63
2022/09/05 00:25:43;;;;;;;15.52;7.05;;;;;;;;;;3364786;42;20170;-62
2022/09/05 00:28:12;;;;;;;16.80;6.57;;;;;;;;;;3366271;42;20096;-61
2022/09/05 00:31:06;;;;;;;14.13;6.80;;;;;;;;;;3367175;42;20095;-62
2022/09/05 00:33:57;;;;;;;15.23;7.28;;;;;;;;;;3361067;42;20091;-63
2022/09/05 00:36:43;;;;;;;15.45;7.03;;;;;;;;;;3344554;42;20552;-62
2022/09/05 00:39:24;;;;;;;15.23;7.28;;;;;;;;;;3365032;42;20139;-63
2022/09/05 00:41:52;;;;;;;15.63;7.15;;;;;;;;;;3355930;42;20581;-63
2022/09/05 00:44:18;;;;;;;15.17;7.17;;;;;;;;;;3353877;42;20521;-63
2022/09/05 00:47:07;;;;;;;18.60;7.50;;;;;;;;;;3353691;42;20084;-64
2022/09/05 00:49:46;;;;;;;15.88;7.25;;;;;;;;;;3360224;42;20091;-63
2022/09/05 00:52:26;;;;;;;16.35;7.90;;;;;;;;;;3364726;42;20104;-63
2022/09/05 00:55:10;;;;;;;18.77;8.25;;;;;;;;;;3366077;42;20142;-63
2022/09/05 00:58:10;;;;;;;18.20;7.83;;;;;;;;;;3366886;42;20139;-63
2022/09/05 01:00:51;;;;;;;17.90;7.68;;;;;;;;;;3356767;42;20103;-63
2022/09/05 01:04:07;;;;;;;18.90;8.25;;;;;;;;;;3359602;42;20099;-63
2022/09/05 01:06:45;;;;;;;14.93;7.07;;;;;;;;;;3354042;42;20143;-63
2022/09/05 01:09:32;;;;;;;17.25;7.60;;;;;;;;;;3365859;42;20087;-64
2022/09/05 01:12:16;;;;;;;17.67;7.80;;;;;;;;;;3358043;42;20574;-62
2022/09/05 01:15:00;;;;;;;15.18;6.93;;;;;;;;;;3358434;42;20140;-63
2022/09/05 01:17:50;;;;;;;17.75;8.23;;;;;;;;;;3365608;42;20207;-63
2022/09/05 01:20:35;;;;;;;17.27;7.43;;;;;;;;;;3358748;42;20162;-63
2022/09/05 01:23:17;;;;;;;16.75;7.85;;;;;;;;;;3355139;42;20107;-64
2022/09/05 01:25:48;;;;;;;16.37;7.67;;;;;;;;;;3360737;42;20155;-63
2022/09/05 01:28:53;;;;;;;16.02;7.30;;;;;;;;;;3360764;42;20614;-63
2022/09/05 01:31:22;;;;;;;14.50;7.00;;;;;;;;;;3363111;42;20162;-64
2022/09/05 01:34:11;;;;;;;16.90;7.85;;;;;;;;;;3365703;42;20107;-62
2022/09/05 01:36:57;;;;;;;15.70;7.47;;;;;;;;;;3358491;42;20139;-63
2022/09/05 01:39:51;;;;;;;16.97;8.07;;;;;;;;;;3364520;42;20095;-62
2022/09/05 01:42:41;;;;;;;15.98;7.28;;;;;;;;;;3357474;42;20091;-62
2022/09/05 01:45:39;;;;;;;18.75;8.43;;;;;;;;;;3365815;42;20118;-63
2022/09/05 01:48:33;;;;;;;15.85;7.78;;;;;;;;;;3361379;42;20562;-62
2022/09/05 01:51:08;;;;;;;15.63;7.25;;;;;;;;;;3362593;42;20579;-62
2022/09/05 01:53:51;;;;;;;15.97;7.73;;;;;;;;;;3366857;42;20108;-63
2022/09/05 01:56:42;;;;;;;18.25;8.57;;;;;;;;;;3364195;42;20138;-63
2022/09/05 01:59:26;;;;;;;15.52;7.43;;;;;;;;;;3366204;42;20657;-63
2022/09/05 02:02:10;;;;;;;18.15;8.30;;;;;;;;;;3368803;42;20155;-64
2022/09/05 02:04:48;;;;;;;17.95;8.50;;;;;;;;;;3367466;42;20573;-62
2022/09/05 02:07:51;;;;;;;15.63;7.33;;;;;;;;;;3368156;42;20096;-63
2022/09/05 02:10:48;;;;;;;18.70;7.38;;;;;;;;;;3365739;42;20080;-63
2022/09/05 02:13:35;;;;;;;16.08;7.43;;;;;;;;;;3360770;42;20088;-64
2022/09/05 02:16:21;;;;;;;15.32;6.82;;;;;;;;;;3367402;42;20095;-62
2022/09/05 02:18:54;;;;;;;16.02;7.30;;;;;;;;;;3365884;42;20084;-64
2022/09/05 02:21:32;;;;;;;13.73;6.80;;;;;;;;;;3362902;42;20092;-63
2022/09/05 02:24:07;;;;;;;14.13;6.80;;;;;;;;;;3368569;42;20092;-62
2022/09/05 02:26:58;;;;;;;14.07;7.00;;;;;;;;;;3365883;42;20475;-64
2022/09/05 02:29:54;;;;;;;14.80;7.40;;;;;;;;;;3367373;42;20103;-63
2022/09/05 02:32:27;;;;;;;17.08;7.38;;;;;;;;;;3350864;42;20094;-63
2022/09/05 02:35:00;;;;;;;15.90;6.80;;;;;;;;;;3365907;42;20501;-63
2022/09/05 02:37:38;;;;;;;14.75;6.63;;;;;;;;;;3365837;42;20106;-64
2022/09/05 02:40:25;;;;;;;16.35;7.22;;;;;;;;;;3366882;42;20185;-63
2022/09/05 02:43:07;;;;;;;16.38;6.90;;;;;;;;;;3365920;42;20100;-64
2022/09/05 02:45:58;;;;;;;17.05;7.68;;;;;;;;;;3365837;42;20170;-63
2022/09/05 02:48:48;;;;;;;15.97;7.03;;;;;;;;;;3363184;42;20505;-64
2022/09/05 02:52:02;;;;;;;15.80;6.97;;;;;;;;;;3362487;42;20564;-63
2022/09/05 02:54:34;;;;;;;13.80;6.22;;;;;;;;;;3330843;42;20193;-64
2022/09/05 02:57:27;;;;;;;15.63;6.80;;;;;;;;;;3349753;42;20118;-62
2022/09/05 02:59:53;;;;;;;14.38;7.05;;;;;;;;;;3367317;42;20147;-65
2022/09/05 03:02:37;;;;;;;13.67;6.67;;;;;;;;;;3368214;42;20166;-62
2022/09/05 03:05:18;;;;;;;14.30;6.88;;;;;;;;;;3366242;42;20100;-63
2022/09/05 03:07:50;;;;;;;16.27;7.75;;;;;;;;;;3366772;42;20096;-66
2022/09/05 03:10:49;;;;;;;15.52;7.35;;;;;;;;;;3367149;42;20096;-63
2022/09/05 03:13:43;;;;;;;17.90;7.22;;;;;;;;;;3365635;42;20096;-64
2022/09/05 03:16:24;;;;;;;14.30;7.00;;;;;;;;;;3362633;42;20139;-63
2022/09/05 03:19:25;;;;;;;16.95;7.03;;;;;;;;;;3366419;42;20084;-66
2022/09/05 03:22:03;;;;;;;15.25;7.07;;;;;;;;;;3359030;42;20150;-63
2022/09/05 03:24:51;;;;;;;15.88;7.32;;;;;;;;;;3371654;42;20091;-64
2022/09/05 03:27:39;;;;;;;12.77;6.93;;;;;;;;;;3365966;42;20131;-63
2022/09/05 03:30:11;;;;;;;14.53;7.27;;;;;;;;;;3360834;42;20187;-61
2022/09/05 03:32:47;;;;;;;14.30;7.35;;;;;;;;;;3364538;42;20095;-62
2022/09/05 03:35:32;;;;;;;13.20;7.20;;;;;;;;;;3362910;42;20139;-62
2022/09/05 03:38:16;;;;;;;13.48;6.85;;;;;;;;;;3359438;42;20119;-62
2022/09/05 03:41:13;;;;;;;14.00;7.35;;;;;;;;;;3360278;42;20107;-62
2022/09/05 03:44:18;;;;;;;13.93;6.97;;;;;;;;;;3361869;42;20538;-63
2022/09/05 03:47:13;;;;;;;14.80;6.80;;;;;;;;;;3364143;42;20092;-64
2022/09/05 03:49:39;;;;;;;19.70;7.70;;;;;;;;;;3351399;42;20829;-62
2022/09/05 03:52:20;;;;;;;18.35;9.05;;;;;;;;;;3361866;42;20114;-62
2022/09/05 03:55:13;;;;;;;18.27;8.60;;;;;;;;;;3364815;42;20091;-63
2022/09/05 03:57:54;;;;;;;16.83;8.07;;;;;;;;;;3361365;42;20123;-65
2022/09/05 04:00:35;;;;;;;17.48;8.80;;;;;;;;;;3364293;42;20175;-63
2022/09/05 04:03:18;;;;;;;18.48;9.25;;;;;;;;;;3366835;42;20092;-63
2022/09/05 04:05:47;;;;;;;19.65;9.25;;;;;;;;;;3359289;42;20123;-63
2022/09/05 04:08:27;;;;;;;18.03;8.90;;;;;;;;;;3363657;42;20128;-64
2022/09/05 04:11:00;;;;;;;19.30;8.50;;;;;;;;;;3364354;42;20633;-63
2022/09/05 04:13:47;;;;;;;18.58;8.68;;;;;;;;;;3366439;42;20142;-64
2022/09/05 04:16:25;;;;;;;16.98;8.82;;;;;;;;;;3364752;42;20132;-62
2022/09/05 04:19:13;;;;;;;16.13;8.32;;;;;;;;;;3364922;42;20114;-62
2022/09/05 04:21:48;;;;;;;16.77;8.20;;;;;;;;;;3364707;42;20162;-66
2022/09/05 04:24:50;;;;;;;15.70;8.00;;;;;;;;;;3365886;42;20096;-64
2022/09/05 04:27:34;;;;;;;17.40;8.45;;;;;;;;;;3365204;42;20526;-65
2022/09/05 04:30:48;;;;;;;15.95;7.65;;;;;;;;;;3362057;42;20099;-65
2022/09/05 04:33:19;;;;;;;15.63;7.72;;;;;;;;;;3356697;42;20099;-64
2022/09/05 04:36:09;;;;;;;15.20;7.70;;;;;;;;;;3361788;42;20635;-64
2022/09/05 04:38:42;;;;;;;13.32;6.93;;;;;;;;;;3352878;42;20096;-65
2022/09/05 04:41:15;;;;;;;14.90;7.22;;;;;;;;;;3352313;42;20187;-63
2022/09/05 04:43:50;;;;;;;15.57;7.35;;;;;;;;;;3353428;42;20176;-63
2022/09/05 04:46:27;;;;;;;13.80;6.18;;;;;;;;;;3356919;42;20106;-65
2022/09/05 04:49:09;;;;;;;13.53;6.50;;;;;;;;;;3360561;42;20100;-63
2022/09/05 04:51:44;;;;;;;12.15;6.38;;;;;;;;;;3359472;42;20160;-65
2022/09/05 04:54:41;;;;;;;12.48;6.18;;;;;;;;;;3360887;42;20087;-62
2022/09/05 04:57:07;;;;;;;13.02;6.78;;;;;;;;;;3364859;42;20189;-63
2022/09/05 04:59:48;;;;;;;14.07;6.75;;;;;;;;;;3367069;42;20545;-63
2022/09/05 05:02:32;;;;;;;15.20;7.20;;;;;;;;;;3366246;42;20091;-62
2022/09/05 05:05:00;;;;;;;14.88;6.90;;;;;;;;;;3364188;42;20084;-62
2022/09/05 05:07:48;;;;;;;14.23;7.20;;;;;;;;;;3364196;42;20095;-65
2022/09/05 05:10:32;;;;;;;15.38;7.20;;;;;;;;;;3366574;42;20079;-62
2022/09/05 05:13:16;;;;;;;14.20;7.65;;;;;;;;;;3364457;42;20095;-59
2022/09/05 05:15:48;;;;;;;14.37;7.30;;;;;;;;;;3358373;42;20104;-65
2022/09/05 05:18:22;;;;;;;15.38;7.05;;;;;;;;;;3364271;42;20506;-65
2022/09/05 05:21:02;;;;;;;13.30;7.03;;;;;;;;;;3366640;42;20138;-63
2022/09/05 05:23:40;;;;;;;12.10;6.97;;;;;;;;;;3364297;42;20568;-64
2022/09/05 05:26:12;;;;;;;14.25;7.25;;;;;;;;;;3365813;42;20146;-66
2022/09/05 05:28:46;;;;;;;14.13;6.63;;;;;;;;;;3364774;42;20096;-64
2022/09/05 05:31:14;;;;;;;14.38;6.63;;;;;;;;;;3364068;42;20155;-63
2022/09/05 05:33:40;;;;;;;14.02;7.28;;;;;;;;;;3363265;42;20467;-63
2022/09/05 05:36:08;;;;;;;14.68;7.43;;;;;;;;;;3364088;42;20621;-64
2022/09/05 05:38:41;;;;;;;12.93;7.63;;;;;;;;;;3363607;42;20170;-64
2022/09/05 05:41:40;;;;;;;15.75;7.15;;;;;;;;;;3356777;42;20197;-64
2022/09/05 05:44:25;;;;;;;14.15;6.80;;;;;;;;;;3361454;42;20564;-64
2022/09/05 05:47:01;;;;;;;15.55;7.00;;;;;;;;;;3364321;42;20169;-65
2022/09/05 05:49:39;;;;;;;15.20;7.28;;;;;;;;;;3364381;42;20135;-63
2022/09/05 05:52:29;;;;;;;15.90;7.03;;;;;;;;;;3365912;42;20114;-63
2022/09/05 05:55:16;;;;;;;16.88;7.60;;;;;;;;;;3366065;42;20131;-65
2022/09/05 05:57:55;;;;;;;14.45;7.43;;;;;;;;;;3357850;42;20103;-65
2022/09/05 06:00:59;;;;;;;12.07;6.65;;;;;;;;;;3364712;42;20100;-65
2022/09/05 06:04:03;;;;;;;14.43;6.93;;;;;;;;;;3362998;42;20080;-65
2022/09/05 06:06:47;;;;;;;14.07;7.03;;;;;;;;;;3358106;42;20170;-64
2022/09/05 06:09:30;;;;;;;16.83;6.93;;;;;;;;;;3365739;42;20091;-65
2022/09/05 06:12:15;;;;;;;14.68;6.70;;;;;;;;;;3364709;42;20112;-65
2022/09/05 06:14:50;;;;;;;15.57;6.88;;;;;;;;;;3364236;42;20697;-67
2022/09/05 06:17:32;;;;;;;15.40;7.05;;;;;;;;;;3365484;42;20110;-65
2022/09/05 06:20:21;;;;;;;15.20;7.27;;;;;;;;;;3362840;42;20092;-69
2022/09/05 06:23:12;;;;;;;13.60;6.47;;;;;;;;;;3363547;42;20201;-64
2022/09/05 06:25:41;;;;;;;13.10;5.90;;;;;;;;;;3365467;42;20095;-63
2022/09/05 06:28:21;;;;;;;13.60;6.25;;;;;;;;;;3366190;42;20088;-62
2022/09/05 06:31:13;;;;;;;10.77;5.35;;;;;;;;;;3355080;42;20102;-63
2022/09/05 06:33:38;;;;;;;13.33;5.47;;;;;;;;;;3346742;42;20159;-63
2022/09/05 06:36:36;;;;;;;12.32;5.90;;;;;;;;;;3365470;42;20088;-63
2022/09/05 06:39:12;;;;;;;11.98;6.07;;;;;;;;;;3362384;42;20575;-63
2022/09/05 06:42:02;;;;;;;11.70;6.05;;;;;;;;;;3355259;42;20107;-63
2022/09/05 06:44:59;;;;;;;12.27;6.43;;;;;;;;;;3363881;42;20084;-63
2022/09/05 06:47:25;;;;;;;11.60;5.90;;;;;;;;;;3359704;42;20502;-62
2022/09/05 06:50:06;;;;;;;12.32;6.22;;;;;;;;;;3365506;42;20641;-62
2022/09/05 06:52:50;;;;;;;10.80;5.50;;;;;;;;;;3362397;42;20162;-63
2022/09/05 06:55:40;;;;;;;11.63;5.60;;;;;;;;;;3364517;42;20146;-65
2022/09/05 06:58:30;;;;;;;11.57;5.63;;;;;;;;;;3366636;42;20096;-61
2022/09/05 07:00:56;;;;;;;11.80;5.77;;;;;;;;;;3364795;42;20111;-63
2022/09/05 07:03:55;;;;;;;10.75;5.50;;;;;;;;;;3365043;42;20166;-62
2022/09/05 07:06:29;;;;;;;10.93;4.90;;;;;;;;;;3365293;42;20580;-63
2022/09/05 07:09:05;;;;;;;10.65;4.80;;;;;;;;;;3365937;42;20083;-63
2022/09/05 07:11:45;;;;;;;11.65;4.90;;;;;;;;;;3366078;42;20159;-63
2022/09/05 07:14:19;;;;;;;12.07;5.73;;;;;;;;;;3364854;42;20108;-64
2022/09/05 07:16:47;;;;;;;11.73;5.40;;;;;;;;;;3365338;42;20084;-63
2022/09/05 07:19:28;;;;;;;14.45;6.47;;;;;;;;;;3361752;42;20139;-62
2022/09/05 07:22:17;;;;;;;17.38;7.70;;;;;;;;;;3366229;42;20112;-64
2022/09/05 07:24:48;;;;;;;17.15;8.63;;;;;;;;;;3365345;42;20092;-63
2022/09/05 07:27:33;;;;;;;19.87;9.00;;;;;;;;;;3364923;42;20106;-65
2022/09/05 07:29:59;;;;;;;18.35;8.65;;;;;;;;;;3366560;42;20134;-63
2022/09/05 07:32:25;;;;;;;17.75;8.68;;;;;;;;;;3364823;42;20579;-64
2022/09/05 07:34:51;;;;;;;17.83;9.25;;;;;;;;;;3364992;42;20123;-63
2022/09/05 07:37:25;;;;;;;18.50;10.07;;;;;;;;;;3364575;42;20088;-63
2022/09/05 07:39:53;;;;;;;20.70;10.70;;;;;;;;;;3357441;42;20150;-60
2022/09/05 07:42:43;;;;;;;22.85;11.63;;;;;;;;;;3365929;42;20590;-64
2022/09/05 07:45:12;;;;;;;23.42;12.30;;;;;;;;;;3365220;42;20099;-62
2022/09/05 07:47:51;;;;;;;28.35;12.48;;;;;;;;;;3366613;42;20135;-64
2022/09/05 07:50:17;;;;;;;26.93;13.23;;;;;;;;;;3365640;42;20151;-62
2022/09/05 07:52:43;;;;;;;27.63;13.13;;;;;;;;;;3366256;42;20181;-64
2022/09/05 07:55:24;;;;;;;25.17;12.80;;;;;;;;;;3365605;42;20338;-64
2022/09/05 07:57:51;;;;;;;27.02;14.30;;;;;;;;;;3366004;42;20162;-63
2022/09/05 08:00:23;;;;;;;27.43;14.57;;;;;;;;;;3364729;42;20280;-63
2022/09/05 08:02:49;;;;;;;31.75;14.68;;;;;;;;;;3364571;42;20590;-64
2022/09/05 08:05:15;;;;;;;28.02;14.48;;;;;;;;;;3366129;42;20095;-64
2022/09/05 08:07:43;;;;;;;25.42;12.82;;;;;;;;;;3357136;42;20126;-64
2022/09/05 08:10:15;;;;;;;29.08;13.70;;;;;;;;;;3364758;42;20170;-65
2022/09/05 08:12:44;;;;;;;26.37;13.13;;;;;;;;;;3357762;42;20919;-66
2022/09/05 08:15:14;;;;;;;27.38;13.75;;;;;;;;;;3357665;42;20096;-66
2022/09/05 08:18:18;;;;;;;29.65;13.60;;;;;;;;;;3365238;42;20568;-66
2022/09/05 08:20:50;;;;;;;30.10;13.82;;;;;;;;;;3355272;42;20088;-66
2022/09/05 08:23:43;;;;;;;37.90;13.23;;;;;;;;;;3366296;42;20095;-65
2022/09/05 08:26:13;;;;;;;23.83;12.27;;;;;;;;;;3366497;42;20098;-65
2022/09/05 08:29:10;;;;;;;29.58;12.50;;;;;;;;;;3353850;42;20175;-65
2022/09/05 08:32:08;;;;;;;24.95;12.65;;;;;;;;;;3361670;42;20213;-63
2022/09/05 08:34:41;;;;;;;24.20;11.65;;;;;;;;;;3363721;42;20160;-65
2022/09/05 08:37:11;;;;;;;23.67;12.38;;;;;;;;;;3366028;42;20183;-64
2022/09/05 08:39:37;;;;;;;23.50;12.00;;;;;;;;;;3365149;42;20514;-63
2022/09/05 08:42:27;;;;;;;23.20;11.80;;;;;;;;;;3366794;42;20586;-64
2022/09/05 08:45:21;;;;;;;23.40;11.30;;;;;;;;;;3364753;42;20095;-63
2022/09/05 08:47:56;;;;;;;17.85;8.38;;;;;;;;;;3360559;42;20126;-63
2022/09/05 08:50:49;;;;;;;18.47;9.23;;;;;;;;;;3357265;42;20095;-65
2022/09/05 08:54:02;;;;;;;20.13;8.63;;;;;;;;;;3364562;42;20135;-64
2022/09/05 08:56:30;;;;;;;22.52;11.75;;;;;;;;;;3356671;42;20547;-64
2022/09/05 08:59:15;;;;;;;27.38;12.18;;;;;;;;;;3360823;42;20131;-64
2022/09/05 09:02:17;;;;;;;24.75;12.60;;;;;;;;;;3364833;42;20613;-64
2022/09/05 09:05:06;;;;;;;25.37;12.03;;;;;;;;;;3356383;42;20092;-64
2022/09/05 09:07:35;;;;;;;26.50;11.65;;;;;;;;;;3367236;42;20084;-63
2022/09/05 09:10:27;;;;;;;23.48;11.65;;;;;;;;;;3363349;42;20092;-63
2022/09/05 09:13:19;;;;;;;20.85;11.45;;;;;;;;;;3365376;42;20160;-64
2022/09/05 09:15:54;;;;;;;21.60;11.02;;;;;;;;;;3358936;42;20091;-62
2022/09/05 09:18:20;;;;;;;25.63;12.30;;;;;;;;;;3365807;42;20139;-62
2022/09/05 09:20:46;;;;;;;27.65;14.13;;;;;;;;;;3364698;42;20139;-63
2022/09/05 09:23:30;;;;;;;31.27;15.32;;;;;;;;;;3366298;42;20557;-65
2022/09/05 09:26:15;;;;;;;30.90;13.93;;;;;;;;;;3366303;42;20138;-62
2022/09/05 09:28:50;;;;;;;28.75;14.57;;;;;;;;;;3366410;42;20160;-63
2022/09/05 09:31:44;;;;;;;30.07;15.17;;;;;;;;;;3361872;42;20558;-63
2022/09/05 09:34:25;;;;;;;29.55;14.50;;;;;;;;;;3364549;42;20091;-62
2022/09/05 09:37:07;;;;;;;33.47;14.93;;;;;;;;;;3367187;42;20093;-62
2022/09/05 09:39:52;;;;;;;31.60;15.05;;;;;;;;;;3363407;42;20545;-64
2022/09/05 09:42:21;;;;;;;35.53;16.00;;;;;;;;;;3365929;42;20581;-63
2022/09/05 09:44:51;;;;;;;30.43;15.70;;;;;;;;;;3366990;42;20146;-63
2022/09/05 09:47:47;;;;;;;32.10;14.32;;;;;;;;;;3366235;42;20546;-63
2022/09/05 09:50:19;;;;;;;27.30;14.00;;;;;;;;;;3366124;42;20095;-63
2022/09/05 09:53:11;;;;;;;30.70;13.85;;;;;;;;;;3365684;42;20139;-63
2022/09/05 09:56:04;;;;;;;30.17;13.73;;;;;;;;;;3364826;42;20594;-64
2022/09/05 09:58:52;;;;;;;32.57;13.63;;;;;;;;;;3366177;42;20094;-63
2022/09/05 10:01:27;;;;;;;28.60;13.60;;;;;;;;;;3355104;42;20498;-63
2022/09/05 10:04:02;;;;;;;31.15;13.63;;;;;;;;;;3365578;42;20095;-64
2022/09/05 10:06:53;;;;;;;30.63;14.27;;;;;;;;;;3365168;42;20088;-63
2022/09/05 10:09:28;;;;;;;31.58;14.50;;;;;;;;;;3366947;42;20092;-63
2022/09/05 10:12:17;;;;;;;30.47;14.63;;;;;;;;;;3365921;42;20108;-64
2022/09/05 10:15:02;;;;;;;31.95;14.90;;;;;;;;;;3365868;42;20092;-64
2022/09/05 10:17:36;;;;;;;29.88;14.35;;;;;;;;;;3367884;42;20083;-64
2022/09/05 10:20:06;;;;;;;30.10;13.77;;;;;;;;;;3367293;42;20203;-64
2022/09/05 10:22:44;;;;;;;30.40;14.48;;;;;;;;;;3369701;42;20139;-64
2022/09/05 10:25:16;;;;;;;27.27;12.87;;;;;;;;;;3367117;42;20088;-66
2022/09/05 10:28:07;;;;;;;25.98;11.85;;;;;;;;;;3368226;42;20096;-63
2022/09/05 10:30:43;;;;;;;23.70;11.55;;;;;;;;;;3363262;42;20135;-64
2022/09/05 10:33:34;;;;;;;22.73;9.88;;;;;;;;;;3366332;42;20098;-63
2022/09/05 10:36:12;;;;;;;20.02;9.85;;;;;;;;;;3359512;42;20574;-62
2022/09/05 10:38:45;;;;;;;20.43;9.80;;;;;;;;;;3365189;42;20503;-63
2022/09/05 10:41:17;;;;;;;22.08;9.80;;;;;;;;;;3364980;42;20144;-62
2022/09/05 10:43:48;;;;;;;20.23;10.30;;;;;;;;;;3366505;42;20079;-63
2022/09/05 10:46:25;;;;;;;18.77;9.30;;;;;;;;;;3366220;42;20173;-61
2022/09/05 10:48:53;;;;;;;20.40;9.38;;;;;;;;;;3366316;42;20688;-63
2022/09/05 10:51:29;;;;;;;17.87;7.87;;;;;;;;;;3367761;42;20135;-63
2022/09/05 10:54:21;;;;;;;14.25;6.90;;;;;;;;;;3366386;42;20153;-64
2022/09/05 10:57:11;;;;;;;14.98;6.30;;;;;;;;;;3367806;42;20087;-63
2022/09/05 11:00:00;;;;;;;12.20;5.70;;;;;;;;;;3368497;42;20088;-62
2022/09/05 11:02:27;;;;;;;11.93;6.07;;;;;;;;;;3366869;42;20555;-63
2022/09/05 11:05:24;;;;;;;17.97;6.00;;;;;;;;;;3367676;42;20083;-64
2022/09/05 11:07:58;;;;;;;11.80;5.40;;;;;;;;;;3367601;42;20141;-63
2022/09/05 11:10:34;;;;;;;11.88;4.82;;;;;;;;;;3366469;42;20092;-64
2022/09/05 11:13:09;;;;;;;10.13;4.80;;;;;;;;;;3367734;42;20179;-63
2022/09/05 11:15:54;;;;;;;11.02;4.38;;;;;;;;;;3362258;42;20146;-65
2022/09/05 11:18:35;;;;;;;11.10;4.10;;;;;;;;;;3368700;42;20084;-64
2022/09/05 11:21:01;;;;;;;9.55;3.83;;;;;;;;;;3365270;42;20573;-64
2022/09/05 11:23:32;;;;;;;9.23;3.65;;;;;;;;;;3365153;42;20599;-63
2022/09/05 11:26:02;;;;;;;10.38;3.40;;;;;;;;;;3364774;42;20551;-63
2022/09/05 11:28:50;;;;;;;9.02;3.47;;;;;;;;;;3365214;42;20854;-64
2022/09/05 11:31:18;;;;;;;9.07;3.70;;;;;;;;;;3365374;42;20159;-64
2022/09/05 11:34:11;;;;;;;9.73;3.13;;;;;;;;;;3364698;42;20140;-64
2022/09/05 11:36:47;;;;;;;9.23;3.17;;;;;;;;;;3366866;42;20091;-62
2022/09/05 11:39:31;;;;;;;9.85;3.90;;;;;;;;;;3366678;42;20100;-63
2022/09/05 11:42:22;;;;;;;8.18;3.55;;;;;;;;;;3366384;42;20138;-64
2022/09/05 11:45:32;;;;;;;7.20;2.83;;;;;;;;;;3366341;42;20730;-63
2022/09/05 11:48:13;;;;;;;8.43;3.40;;;;;;;;;;3360631;42;20102;-60
2022/09/05 11:51:36;;;;;;;7.90;3.20;;;;;;;;;;3366364;42;20096;-64
2022/09/05 11:54:29;;;;;;;7.70;2.90;;;;;;;;;;3337375;42;20093;-61
2022/09/05 11:57:04;;;;;;;7.80;2.85;;;;;;;;;;3330600;42;20152;-63
2022/09/05 11:59:51;;;;;;;8.13;3.10;;;;;;;;;;3361716;42;20099;-64
2022/09/05 12:02:24;;;;;;;9.05;3.50;;;;;;;;;;3356230;42;20174;-64
2022/09/05 12:05:27;;;;;;;7.85;2.80;;;;;;;;;;3361874;42;20150;-65
2022/09/05 12:08:07;;;;;;;8.00;3.08;;;;;;;;;;3365704;42;20193;-64
2022/09/05 12:10:36;;;;;;;7.35;2.60;;;;;;;;;;3365100;42;20150;-63
2022/09/05 12:13:07;;;;;;;6.83;2.50;;;;;;;;;;3366908;42;20084;-63
2022/09/05 12:15:33;;;;;;;6.10;2.60;;;;;;;;;;3361823;42;20114;-66
2022/09/05 12:18:18;;;;;;;9.88;2.75;;;;;;;;;;3366329;42;20084;-64
2022/09/05 12:21:34;;;;;;;8.75;2.85;;;;;;;;;;3360505;42;20080;-64
2022/09/05 12:24:19;;;;;;;8.48;2.50;;;;;;;;;;3331686;42;20116;-63
2022/09/05 12:26:47;;;;;;;9.07;2.93;;;;;;;;;;3331037;42;20100;-65
2022/09/05 12:29:17;;;;;;;6.40;2.47;;;;;;;;;;3350046;42;20531;-63
2022/09/05 12:31:52;;;;;;;8.35;2.42;;;;;;;;;;3364034;42;20151;-62
2022/09/05 12:34:41;;;;;;;8.80;2.67;;;;;;;;;;3364546;42;20084;-64
2022/09/05 12:37:10;;;;;;;6.10;2.20;;;;;;;;;;3364018;42;20179;-64
2022/09/05 12:39:44;;;;;;;8.10;2.90;;;;;;;;;;3363868;42;20100;-62
2022/09/05 12:42:22;;;;;;;8.27;1.85;;;;;;;;;;3365750;42;20537;-64
2022/09/05 12:45:08;;;;;;;5.93;2.15;;;;;;;;;;3365764;42;20084;-63
2022/09/05 12:48:09;;;;;;;9.70;1.83;;;;;;;;;;3364844;42;20153;-62
2022/09/05 12:51:29;;;;;;;6.28;2.05;;;;;;;;;;3360899;42;20223;-66
2022/09/05 12:53:57;;;;;;;7.47;2.00;;;;;;;;;;3330194;42;20202;-64
2022/09/05 12:56:35;;;;;;;5.82;2.00;;;;;;;;;;3315706;42;20089;-63
2022/09/05 12:59:02;;;;;;;7.95;1.98;;;;;;;;;;3353122;42;20131;-64
2022/09/05 13:02:02;;;;;;;5.35;1.80;;;;;;;;;;3355798;42;20131;-63
2022/09/05 13:04:43;;;;;;;6.97;1.92;;;;;;;;;;3364603;42;20250;-65
2022/09/05 13:07:15;;;;;;;6.27;1.80;;;;;;;;;;3364238;42;20103;-65
2022/09/05 13:09:55;;;;;;;6.00;2.08;;;;;;;;;;3364134;42;20163;-64
2022/09/05 13:12:30;;;;;;;6.05;2.15;;;;;;;;;;3363789;42;20160;-64
2022/09/05 13:15:06;;;;;;;7.50;2.00;;;;;;;;;;3363101;42;20095;-64
2022/09/05 13:17:39;;;;;;;5.55;2.20;;;;;;;;;;3363732;42;20106;-63
2022/09/05 13:20:32;;;;;;;5.20;1.73;;;;;;;;;;3359103;42;20088;-65
2022/09/05 13:23:11;;;;;;;6.28;2.40;;;;;;;;;;3358033;42;20087;-63
2022/09/05 13:25:40;;;;;;;6.03;2.22;;;;;;;;;;3363557;42;20162;-63
2022/09/05 13:28:07;;;;;;;5.95;1.88;;;;;;;;;;3364146;42;20180;-62
2022/09/05 13:30:36;;;;;;;6.03;2.30;;;;;;;;;;3356732;42;20157;-63
2022/09/05 13:33:08;;;;;;;6.03;1.93;;;;;;;;;;3364298;42;20100;-64
2022/09/05 13:35:38;;;;;;;7.05;2.38;;;;;;;;;;3364207;42;20154;-63
2022/09/05 13:38:15;;;;;;;5.65;2.10;;;;;;;;;;3364216;42;20101;-63
2022/09/05 13:40:43;;;;;;;6.60;2.17;;;;;;;;;;3364358;42;20211;-62
2022/09/05 13:43:13;;;;;;;7.40;2.35;;;;;;;;;;3363770;42;20716;-66
2022/09/05 13:45:47;;;;;;;7.73;2.50;;;;;;;;;;3364598;42;20095;-64
2022/09/05 13:48:33;;;;;;;7.05;2.10;;;;;;;;;;3366167;42;20203;-64
2022/09/05 13:51:11;;;;;;;7.47;2.40;;;;;;;;;;3364620;42;20602;-64
2022/09/05 13:53:50;;;;;;;5.50;1.88;;;;;;;;;;3359027;42;20171;-64
2022/09/05 13:56:22;;;;;;;5.80;1.90;;;;;;;;;;3361444;42;20099;-65
2022/09/05 13:59:07;;;;;;;7.33;2.00;;;;;;;;;;3362072;42;20092;-64
2022/09/05 14:01:53;;;;;;;5.80;1.98;;;;;;;;;;3358465;42;20120;-64
2022/09/05 14:04:39;;;;;;;6.25;2.20;;;;;;;;;;3354331;42;20106;-62
2022/09/05 14:07:30;;;;;;;5.95;2.00;;;;;;;;;;3363364;42;20630;-63
2022/09/05 14:10:12;;;;;;;5.53;1.98;;;;;;;;;;3366912;42;20158;-63
2022/09/05 14:13:01;;;;;;;8.43;2.03;;;;;;;;;;3365450;42;20158;-63
2022/09/05 14:15:42;;;;;;;6.35;2.08;;;;;;;;;;3367023;42;20615;-63
2022/09/05 14:18:15;;;;;;;5.80;2.03;;;;;;;;;;3368031;42;20103;-64
2022/09/05 14:23:39;;;;;;;10.88;4.38;;;;;;;;;;3360492;42;20099;-64
2022/09/05 14:26:09;;;;;;;6.50;2.40;;;;;;;;;;3360584;42;20084;-63
2022/09/05 14:28:41;;;;;;;7.70;2.50;;;;;;;;;;3355736;42;20155;-63
2022/09/05 14:31:12;;;;;;;6.80;2.22;;;;;;;;;;3361355;42;20099;-64
2022/09/05 14:34:00;;;;;;;6.97;2.45;;;;;;;;;;3355142;42;20091;-63
2022/09/05 14:36:47;;;;;;;7.70;2.60;;;;;;;;;;3367036;42;20091;-65
2022/09/05 14:39:37;;;;;;;6.77;2.20;;;;;;;;;;3362612;42;20504;-64
2022/09/05 14:42:26;;;;;;;6.70;2.33;;;;;;;;;;3366024;42;20141;-64
2022/09/05 14:45:11;;;;;;;5.97;2.00;;;;;;;;;;3358925;42;20103;-63
2022/09/05 14:47:56;;;;;;;6.05;2.33;;;;;;;;;;3368078;42;20154;-65
2022/09/05 14:51:08;;;;;;;8.82;2.20;;;;;;;;;;3367782;42;20691;-63
2022/09/05 14:53:52;;;;;;;5.87;2.20;;;;;;;;;;3355403;42;20171;-66
2022/09/05 14:56:40;;;;;;;6.75;2.13;;;;;;;;;;3358883;42;20135;-64
2022/09/05 14:59:38;;;;;;;7.20;2.65;;;;;;;;;;3365845;42;20152;-62
2022/09/05 15:02:09;;;;;;;6.65;2.53;;;;;;;;;;3365319;42;20119;-68
2022/09/05 15:04:47;;;;;;;9.88;3.10;;;;;;;;;;3368414;42;20147;-64
2022/09/05 15:07:30;;;;;;;9.70;2.53;;;;;;;;;;3366125;42;20096;-64
2022/09/05 15:10:05;;;;;;;10.25;2.50;;;;;;;;;;3365700;42;20096;-64
2022/09/05 15:12:32;;;;;;;7.90;2.50;;;;;;;;;;3368487;42;20099;-64
2022/09/05 15:15:24;;;;;;;8.00;3.03;;;;;;;;;;3366948;42;20080;-64
2022/09/05 15:18:12;;;;;;;8.00;2.58;;;;;;;;;;3358329;42;20099;-62
2022/09/05 15:20:40;;;;;;;10.07;3.10;;;;;;;;;;3365421;42;20096;-66
2022/09/05 15:23:30;;;;;;;9.70;2.95;;;;;;;;;;3365085;42;20553;-65
2022/09/05 15:26:06;;;;;;;7.47;3.00;;;;;;;;;;3365381;42;20088;-64
2022/09/05 15:28:32;;;;;;;8.63;3.25;;;;;;;;;;3366589;42;20084;-63
2022/09/05 15:31:05;;;;;;;8.17;2.87;;;;;;;;;;3370395;42;20677;-64
2022/09/05 15:33:32;;;;;;;8.35;3.08;;;;;;;;;;3362596;42;20084;-64
2022/09/05 15:35:58;;;;;;;9.80;2.60;;;;;;;;;;3349923;42;20096;-64
2022/09/05 15:38:35;;;;;;;10.40;3.17;;;;;;;;;;3362410;42;20109;-64
2022/09/05 15:41:18;;;;;;;7.60;3.03;;;;;;;;;;3359472;42;20100;-63
2022/09/05 15:44:08;;;;;;;8.47;2.60;;;;;;;;;;3366787;42;20100;-63
2022/09/05 15:47:02;;;;;;;8.00;2.97;;;;;;;;;;3359386;42;20127;-64
2022/09/05 15:49:37;;;;;;;9.80;3.20;;;;;;;;;;3365427;42;20091;-63
2022/09/05 15:52:16;;;;;;;6.57;2.33;;;;;;;;;;3366314;42;20563;-64
2022/09/05 15:55:00;;;;;;;9.27;2.67;;;;;;;;;;3362222;42;20254;-63
2022/09/05 15:57:26;;;;;;;6.80;2.27;;;;;;;;;;3365495;42;20103;-64